Time;durP1;ratioP1;P1;durP2;ratioP2;P2;SDS_P1;SDS_P2;PMS_P1;PMS_P2;Temp;Humidity;BMP_temperature;BMP_pressure;BME280_temperature;BME280_humidity;BME280_pressure;Samples;Min_cycle;Max_cycle;Signal;HPM_P1;HPM_P2
2023/09/07 00:00:30;;;;;;;10.43;9.43;;;;;;;15.50;100.00;101863.06;4881852;29;20159;-68
2023/09/07 00:02:55;;;;;;;11.35;10.15;;;;;;;15.46;100.00;101856.06;4873777;29;20127;-69
2023/09/07 00:05:21;;;;;;;10.18;9.05;;;;;;;15.52;100.00;101860.38;4886499;29;20120;-68
2023/09/07 00:07:48;;;;;;;9.70;8.50;;;;;;;15.47;100.00;101860.44;4884683;29;20039;-69
2023/09/07 00:10:14;;;;;;;10.65;9.30;;;;;;;15.45;100.00;101853.47;4878086;29;20037;-68
2023/09/07 00:12:42;;;;;;;12.15;9.93;;;;;;;15.34;100.00;101858.88;4864457;29;20033;-68
2023/09/07 00:15:10;;;;;;;12.77;10.30;;;;;;;15.42;100.00;101849.09;4888652;29;20130;-68
2023/09/07 00:17:36;;;;;;;14.82;13.18;;;;;;;15.39;100.00;101859.69;4889772;29;20040;-69
2023/09/07 00:20:09;;;;;;;11.05;10.02;;;;;;;15.32;100.00;101848.34;4870917;29;20032;-68
2023/09/07 00:22:35;;;;;;;11.52;10.40;;;;;;;15.42;100.00;101852.59;4881786;29;20055;-68
2023/09/07 00:25:00;;;;;;;16.25;14.82;;;;;;;15.49;100.00;101850.72;4876907;29;20461;-68
2023/09/07 00:27:25;;;;;;;11.63;10.63;;;;;;;15.44;100.00;101852.56;4867457;29;20036;-68
2023/09/07 00:29:51;;;;;;;9.93;9.00;;;;;;;15.43;100.00;101853.47;4890523;29;20443;-68
2023/09/07 00:32:16;;;;;;;15.10;13.77;;;;;;;15.51;100.00;101848.06;4893836;29;20032;-69
2023/09/07 00:34:42;;;;;;;19.92;18.00;;;;;;;15.69;100.00;101847.75;4891640;29;20040;-69
2023/09/07 00:37:07;;;;;;;16.30;14.73;;;;;;;15.64;100.00;101843.44;4871057;29;20040;-69
2023/09/07 00:39:33;;;;;;;12.30;11.07;;;;;;;15.49;100.00;101844.59;4897086;29;20492;-68
2023/09/07 00:41:58;;;;;;;15.95;14.35;;;;;;;15.56;100.00;101838.31;4882903;29;20040;-68
2023/09/07 00:44:23;;;;;;;15.90;14.15;;;;;;;15.49;100.00;101832.25;4884634;29;20036;-69
2023/09/07 00:46:49;;;;;;;15.65;14.05;;;;;;;15.36;100.00;101833.34;4875785;29;20047;-69
2023/09/07 00:49:14;;;;;;;20.60;18.80;;;;;;;15.72;100.00;101836.28;4874833;29;20031;-68
2023/09/07 00:51:40;;;;;;;18.13;16.45;;;;;;;15.71;100.00;101838.03;4879311;29;20099;-69
2023/09/07 00:54:06;;;;;;;14.00;12.60;;;;;;;15.53;100.00;101839.22;4886116;29;20081;-69
2023/09/07 00:56:32;;;;;;;12.60;10.30;;;;;;;15.24;100.00;101835.28;4882851;29;20179;-69
2023/09/07 00:58:59;;;;;;;12.43;11.15;;;;;;;15.21;100.00;101830.06;4894363;29;20064;-68
2023/09/07 01:01:25;;;;;;;13.43;12.10;;;;;;;15.20;100.00;101838.84;4895761;29;20032;-68
2023/09/07 01:03:51;;;;;;;15.85;12.38;;;;;;;15.17;100.00;101838.03;4889576;29;20232;-69
2023/09/07 01:06:22;;;;;;;17.92;16.23;;;;;;;15.07;100.00;101838.16;4872582;29;20444;-69
2023/09/07 01:08:53;;;;;;;14.13;12.75;;;;;;;15.10;100.00;101839.91;4890137;29;20028;-67
2023/09/07 01:11:22;;;;;;;13.85;12.55;;;;;;;15.05;100.00;101839.06;4890909;29;20484;-67
2023/09/07 01:13:50;;;;;;;15.98;14.63;;;;;;;15.09;100.00;101837.28;4881562;29;20389;-68
2023/09/07 01:16:16;;;;;;;10.75;9.70;;;;;;;15.06;100.00;101836.41;4902194;29;20168;-67
2023/09/07 01:18:42;;;;;;;11.73;10.52;;;;;;;15.04;100.00;101832.94;4898428;29;20090;-68
2023/09/07 01:21:09;;;;;;;14.13;12.90;;;;;;;14.99;100.00;101833.91;4907237;29;20027;-68
2023/09/07 01:23:40;;;;;;;9.35;8.48;;;;;;;14.83;100.00;101831.47;4900252;29;20032;-69
2023/09/07 01:26:08;;;;;;;10.35;9.18;;;;;;;14.71;100.00;101835.16;4908071;29;20043;-69
2023/09/07 01:28:37;;;;;;;7.63;6.93;;;;;;;14.58;100.00;101824.72;4897948;29;20036;-69
2023/09/07 01:31:03;;;;;;;9.35;8.38;;;;;;;14.60;100.00;101826.47;4885771;29;20028;-69
2023/09/07 01:33:29;;;;;;;11.63;10.52;;;;;;;14.61;100.00;101827.31;4901475;29;20042;-69
2023/09/07 01:35:54;;;;;;;15.95;14.40;;;;;;;14.67;100.00;101836.06;4869376;29;20047;-68
2023/09/07 01:38:20;;;;;;;17.67;15.52;;;;;;;14.67;100.00;101828.16;4840575;29;20035;-68
2023/09/07 01:40:46;;;;;;;14.25;12.95;;;;;;;14.68;100.00;101831.66;4873043;29;20108;-68
2023/09/07 01:43:11;;;;;;;14.68;13.23;;;;;;;14.68;100.00;101829.91;4888716;29;20050;-68
2023/09/07 01:45:37;;;;;;;12.60;11.40;;;;;;;14.69;100.00;101826.38;4893514;29;20060;-69
2023/09/07 01:48:03;;;;;;;14.30;12.90;;;;;;;14.54;100.00;101821.28;4874419;29;20042;-69
2023/09/07 01:50:28;;;;;;;11.88;10.77;;;;;;;14.62;100.00;101823.84;4886362;29;20043;-68
2023/09/07 01:52:54;;;;;;;13.57;12.07;;;;;;;14.56;100.00;101820.34;4895766;29;20037;-68
2023/09/07 01:55:19;;;;;;;10.07;9.18;;;;;;;14.40;100.00;101817.94;4866709;29;20469;-69
2023/09/07 01:57:45;;;;;;;10.55;9.40;;;;;;;14.48;100.00;101818.69;4875748;29;20035;-68
2023/09/07 02:00:12;;;;;;;11.85;10.75;;;;;;;14.35;100.00;101821.50;4884284;29;20388;-69
2023/09/07 02:02:37;;;;;;;13.05;11.73;;;;;;;14.37;100.00;101817.06;4880560;29;20040;-68
2023/09/07 02:05:03;;;;;;;12.77;11.57;;;;;;;14.41;100.00;101819.66;4873507;29;20037;-69
2023/09/07 02:07:29;;;;;;;13.95;12.50;;;;;;;14.44;100.00;101820.50;4876131;29;20043;-69
2023/09/07 02:09:54;;;;;;;13.95;11.90;;;;;;;14.29;100.00;101812.78;4889686;29;20410;-70
2023/09/07 02:12:20;;;;;;;15.77;14.27;;;;;;;14.46;100.00;101815.22;4894314;29;20532;-69
2023/09/07 02:14:46;;;;;;;15.73;14.18;;;;;;;14.59;100.00;101813.28;4898647;29;20032;-69
2023/09/07 02:17:17;;;;;;;14.13;12.73;;;;;;;14.55;100.00;101818.63;4888358;29;20028;-69
2023/09/07 02:19:43;;;;;;;12.50;10.70;;;;;;;14.44;100.00;101812.59;4892060;29;20056;-70
2023/09/07 02:22:09;;;;;;;12.82;11.70;;;;;;;14.44;100.00;101819.63;4882813;29;20071;-69
2023/09/07 02:24:34;;;;;;;15.32;13.95;;;;;;;14.33;100.00;101818.00;4885317;29;20059;-69
2023/09/07 02:27:00;;;;;;;13.32;11.05;;;;;;;14.23;100.00;101812.84;4870316;29;20036;-70
2023/09/07 02:29:26;;;;;;;15.50;13.90;;;;;;;14.38;100.00;101815.31;4878770;29;20377;-70
2023/09/07 02:31:52;;;;;;;19.42;17.73;;;;;;;14.52;100.00;101812.50;4886128;29;20041;-69
2023/09/07 02:34:17;;;;;;;20.67;18.77;;;;;;;14.63;100.00;101815.03;4881679;29;20044;-69
2023/09/07 02:36:43;;;;;;;19.35;17.60;;;;;;;14.49;100.00;101808.13;4881752;29;20493;-69
2023/09/07 02:39:09;;;;;;;24.00;21.90;;;;;;;14.88;100.00;101818.19;4887802;29;20072;-70
2023/09/07 02:41:35;;;;;;;16.55;14.98;;;;;;;14.67;100.00;101814.13;4875414;29;20123;-70
2023/09/07 02:44:00;;;;;;;18.23;16.55;;;;;;;14.79;100.00;101810.44;4881318;29;20043;-70
2023/09/07 02:46:26;;;;;;;17.80;16.20;;;;;;;14.72;100.00;101820.19;4889394;29;20144;-70
2023/09/07 02:48:51;;;;;;;17.33;15.70;;;;;;;14.66;100.00;101818.50;4869016;29;20108;-70
2023/09/07 02:51:17;;;;;;;18.42;16.42;;;;;;;14.74;100.00;101823.69;4879084;29;20045;-70
2023/09/07 02:53:42;;;;;;;17.73;16.23;;;;;;;14.68;100.00;101821.13;4898813;29;20024;-70
2023/09/07 02:56:10;;;;;;;17.58;15.75;;;;;;;14.72;100.00;101817.53;4892969;29;20120;-70
2023/09/07 02:58:37;;;;;;;20.88;18.88;;;;;;;14.84;100.00;101820.03;4866777;29;20384;-70
2023/09/07 03:01:08;;;;;;;21.90;19.80;;;;;;;14.99;100.00;101823.34;4880102;29;20116;-70
2023/09/07 03:03:34;;;;;;;22.77;20.55;;;;;;;15.06;100.00;101819.72;4881781;29;20099;-70
2023/09/07 03:06:11;;;;;;;22.85;20.65;;;;;;;15.14;100.00;101823.13;4854415;29;20028;-69
2023/09/07 03:08:36;;;;;;;20.98;18.92;;;;;;;15.09;100.00;101814.38;4881068;29;20315;-70
2023/09/07 03:11:06;;;;;;;20.90;18.90;;;;;;;15.12;100.00;101816.97;4883398;29;20042;-70
2023/09/07 03:13:31;;;;;;;19.30;17.42;;;;;;;15.01;100.00;101818.91;4870212;29;20084;-67
2023/09/07 03:15:57;;;;;;;20.20;18.35;;;;;;;15.05;100.00;101804.75;4880949;29;20391;-68
2023/09/07 03:18:23;;;;;;;21.38;18.35;;;;;;;15.07;100.00;101811.78;4897061;29;20245;-68
2023/09/07 03:20:50;;;;;;;20.00;18.10;;;;;;;15.09;100.00;101813.53;4868936;29;20367;-68
2023/09/07 03:23:16;;;;;;;20.67;17.88;;;;;;;15.06;100.00;101807.38;4881460;29;20044;-67
2023/09/07 03:25:41;;;;;;;19.50;17.60;;;;;;;15.03;100.00;101810.06;4881110;29;20528;-68
2023/09/07 03:28:07;;;;;;;14.93;13.43;;;;;;;14.79;100.00;101813.94;4840152;29;20127;-67
2023/09/07 03:30:33;;;;;;;12.68;11.35;;;;;;;14.67;100.00;101816.75;4892560;29;20389;-67
2023/09/07 03:32:58;;;;;;;14.20;12.82;;;;;;;14.46;100.00;101812.59;4912347;29;20119;-68
2023/09/07 03:35:24;;;;;;;15.85;14.45;;;;;;;14.40;100.00;101807.38;4874690;29;20471;-68
2023/09/07 03:37:49;;;;;;;15.45;14.05;;;;;;;14.35;100.00;101812.69;4900280;29;20465;-68
2023/09/07 03:40:15;;;;;;;17.73;16.13;;;;;;;14.49;100.00;101809.91;4900159;29;20036;-68
2023/09/07 03:42:41;;;;;;;15.13;13.73;;;;;;;14.20;100.00;101814.63;4877370;29;20059;-68
2023/09/07 03:45:07;;;;;;;17.23;15.45;;;;;;;14.29;100.00;101810.13;4883831;29;20078;-69
2023/09/07 03:47:33;;;;;;;14.05;12.57;;;;;;;14.20;100.00;101819.03;4877104;29;20036;-69
2023/09/07 03:49:58;;;;;;;14.63;13.32;;;;;;;14.06;100.00;101820.94;4886628;29;20035;-69
2023/09/07 03:52:26;;;;;;;11.77;10.57;;;;;;;13.85;100.00;101831.69;4880393;29;20033;-69
2023/09/07 03:54:53;;;;;;;15.45;13.30;;;;;;;13.97;100.00;101830.69;4905807;29;20032;-69
2023/09/07 03:57:19;;;;;;;13.50;12.18;;;;;;;13.84;100.00;101826.44;4879887;29;20489;-69
2023/09/07 03:59:45;;;;;;;12.50;11.30;;;;;;;13.79;100.00;101823.84;4888329;29;20032;-69
2023/09/07 04:02:12;;;;;;;13.18;11.45;;;;;;;13.69;100.00;101828.31;4867066;29;20031;-69
2023/09/07 04:04:38;;;;;;;12.82;10.15;;;;;;;13.65;100.00;101823.97;4887859;29;20036;-69
2023/09/07 04:07:03;;;;;;;14.10;12.68;;;;;;;13.72;100.00;101826.53;4882142;29;20055;-69
2023/09/07 04:09:31;;;;;;;12.98;11.70;;;;;;;13.67;100.00;101826.59;4891232;29;20105;-69
2023/09/07 04:11:56;;;;;;;11.85;10.65;;;;;;;13.62;100.00;101823.09;4880750;29;20489;-69
2023/09/07 04:14:21;;;;;;;17.17;15.40;;;;;;;13.78;100.00;101834.41;4886967;29;20100;-69
2023/09/07 04:16:48;;;;;;;16.33;14.60;;;;;;;13.85;100.00;101825.56;4884307;29;20032;-69
2023/09/07 04:19:14;;;;;;;15.80;14.38;;;;;;;13.77;100.00;101828.25;4890284;29;20057;-69
2023/09/07 04:21:39;;;;;;;14.30;12.75;;;;;;;13.74;100.00;101817.75;4885550;29;20405;-69
2023/09/07 04:24:05;;;;;;;10.35;9.35;;;;;;;13.64;100.00;101814.31;4898628;29;20036;-69
2023/09/07 04:26:30;;;;;;;14.55;13.25;;;;;;;13.62;100.00;101808.19;4898295;29;20032;-69
2023/09/07 04:28:56;;;;;;;14.95;13.63;;;;;;;13.69;100.00;101816.91;4859914;29;20040;-69
2023/09/07 04:31:22;;;;;;;20.92;16.60;;;;;;;13.79;100.00;101809.78;4907324;29;20037;-69
2023/09/07 04:33:47;;;;;;;17.85;16.05;;;;;;;13.78;100.00;101815.97;4897904;29;20066;-69
2023/09/07 04:36:14;;;;;;;13.32;12.02;;;;;;;13.69;100.00;101816.91;4897977;29;20099;-69
2023/09/07 04:38:40;;;;;;;13.52;12.23;;;;;;;13.67;100.00;101821.31;4882185;29;20028;-69
2023/09/07 04:41:11;;;;;;;12.48;10.60;;;;;;;13.51;100.00;101824.06;4902037;29;20127;-69
2023/09/07 04:43:45;;;;;;;13.25;11.10;;;;;;;13.45;100.00;101821.50;4893876;29;20111;-69
2023/09/07 04:46:12;;;;;;;12.57;11.27;;;;;;;13.32;100.00;101825.09;4858334;29;20457;-69
2023/09/07 04:48:38;;;;;;;12.35;11.15;;;;;;;13.43;100.00;101831.19;4883873;29;20103;-69
2023/09/07 04:51:06;;;;;;;13.13;11.23;;;;;;;13.39;100.00;101837.34;4905882;29;20033;-68
2023/09/07 04:53:34;;;;;;;12.50;11.20;;;;;;;13.31;100.00;101829.47;4882031;29;20035;-69
2023/09/07 04:56:00;;;;;;;11.45;10.45;;;;;;;13.28;100.00;101828.63;4906467;29;20197;-69
2023/09/07 04:58:26;;;;;;;13.75;12.43;;;;;;;13.26;100.00;101828.63;4896867;29;20055;-67
2023/09/07 05:00:52;;;;;;;15.43;13.50;;;;;;;13.41;100.00;101832.06;4895154;29;20033;-67
2023/09/07 05:03:17;;;;;;;12.10;11.00;;;;;;;13.37;100.00;101828.56;4907044;29;20060;-67
2023/09/07 05:05:46;;;;;;;12.20;11.00;;;;;;;13.33;100.00;101830.34;4873955;29;20037;-67
2023/09/07 05:08:11;;;;;;;12.85;11.32;;;;;;;13.25;100.00;101833.91;4865196;29;20040;-67
2023/09/07 05:10:38;;;;;;;13.18;11.95;;;;;;;13.14;100.00;101836.59;4874345;29;20040;-67
2023/09/07 05:13:07;;;;;;;13.73;12.43;;;;;;;13.10;100.00;101840.13;4888229;29;20106;-67
2023/09/07 05:15:33;;;;;;;15.52;14.02;;;;;;;13.14;100.00;101837.47;4879689;29;20044;-67
2023/09/07 05:17:59;;;;;;;13.65;11.40;;;;;;;13.19;100.00;101840.09;4864383;29;20386;-67
2023/09/07 05:20:24;;;;;;;13.88;12.57;;;;;;;13.25;100.00;101839.19;4906998;29;20036;-67
2023/09/07 05:22:50;;;;;;;16.48;14.57;;;;;;;13.45;100.00;101833.81;4883366;29;20028;-67
2023/09/07 05:25:16;;;;;;;14.10;12.27;;;;;;;13.52;100.00;101841.63;4884597;29;20052;-67
2023/09/07 05:27:44;;;;;;;16.63;14.75;;;;;;;13.78;100.00;101847.56;4887039;29;20045;-67
2023/09/07 05:30:10;;;;;;;17.50;14.10;;;;;;;13.79;100.00;101842.28;4841788;29;20035;-67
2023/09/07 05:32:36;;;;;;;14.63;12.68;;;;;;;13.80;100.00;101841.38;4891660;29;20037;-67
2023/09/07 05:35:02;;;;;;;12.00;10.90;;;;;;;13.91;100.00;101857.09;4881691;29;20073;-67
2023/09/07 05:37:27;;;;;;;14.13;12.73;;;;;;;14.19;100.00;101841.91;4909942;29;20393;-67
2023/09/07 05:39:53;;;;;;;13.63;12.38;;;;;;;14.26;100.00;101852.38;4882120;29;20040;-67
2023/09/07 05:42:18;;;;;;;18.95;16.70;;;;;;;14.61;100.00;101843.16;4875172;29;20036;-67
2023/09/07 05:44:43;;;;;;;19.88;17.67;;;;;;;14.86;100.00;101856.94;4868643;29;20044;-67
2023/09/07 05:47:09;;;;;;;19.10;17.13;;;;;;;15.02;100.00;101854.97;4855979;29;20037;-67
2023/09/07 05:49:34;;;;;;;18.85;16.48;;;;;;;15.19;100.00;101852.09;4874653;29;20060;-67
2023/09/07 05:52:00;;;;;;;19.27;17.27;;;;;;;15.42;100.00;101862.28;4866495;29;20120;-67
2023/09/07 05:54:25;;;;;;;19.13;16.65;;;;;;;15.56;100.00;101862.94;4865685;29;20457;-67
2023/09/07 05:56:51;;;;;;;20.65;17.35;;;;;;;15.79;100.00;101867.00;4867884;29;20045;-67
2023/09/07 05:59:19;;;;;;;24.15;17.00;;;;;;;15.98;100.00;101869.34;4853365;29;20497;-67
2023/09/07 06:01:45;;;;;;;18.75;16.88;;;;;;;16.11;100.00;101868.19;4882860;29;20469;-67
2023/09/07 06:04:10;;;;;;;18.42;16.45;;;;;;;16.24;100.00;101871.50;4884563;29;20036;-67
2023/09/07 06:06:36;;;;;;;18.95;16.55;;;;;;;16.51;100.00;101864.78;4862306;29;20048;-67
2023/09/07 06:09:01;;;;;;;17.73;15.45;;;;;;;17.91;100.00;101871.31;4881275;29;20366;-67
2023/09/07 06:11:26;;;;;;;15.38;13.75;;;;;;;19.54;90.09;101868.34;4882008;29;20040;-67
2023/09/07 06:13:52;;;;;;;15.57;12.57;;;;;;;21.02;81.29;101877.31;4882663;29;20485;-67
2023/09/07 06:16:17;;;;;;;13.07;11.10;;;;;;;22.17;74.92;101878.81;4895048;29;20027;-67
2023/09/07 06:18:43;;;;;;;11.82;10.05;;;;;;;23.04;71.10;101876.63;4893034;29;20129;-67
2023/09/07 06:21:09;;;;;;;13.07;10.77;;;;;;;23.73;68.42;101879.56;4873228;29;20385;-67
2023/09/07 06:23:35;;;;;;;12.25;10.27;;;;;;;24.71;63.27;101878.88;4885730;29;20024;-67
2023/09/07 06:26:00;;;;;;;13.52;9.15;;;;;;;25.11;62.35;101889.22;4876526;29;20044;-67
2023/09/07 06:28:26;;;;;;;16.88;9.80;;;;;;;26.17;60.35;101892.91;4898433;29;20497;-67
2023/09/07 06:30:52;;;;;;;15.82;9.50;;;;;;;26.37;58.24;101891.69;4880745;29;20040;-67
2023/09/07 06:33:18;;;;;;;13.45;8.35;;;;;;;27.16;54.69;101889.41;4903199;29;20405;-67
2023/09/07 06:35:43;;;;;;;16.67;8.90;;;;;;;27.52;54.64;101898.72;4866171;29;20517;-67
2023/09/07 06:38:11;;;;;;;16.23;9.05;;;;;;;27.93;51.79;101898.59;4884815;29;20087;-67
2023/09/07 06:40:36;;;;;;;20.38;10.02;;;;;;;28.69;49.61;101909.53;4888402;29;20043;-68
2023/09/07 06:43:05;;;;;;;15.50;8.50;;;;;;;29.02;48.82;101900.81;4885292;29;20036;-67
2023/09/07 06:45:37;;;;;;;13.70;8.50;;;;;;;29.38;49.65;101904.50;4883704;29;20036;-67
2023/09/07 06:48:03;;;;;;;11.63;8.13;;;;;;;29.24;47.18;101907.34;4905199;29;20043;-69
2023/09/07 06:50:29;;;;;;;15.80;8.20;;;;;;;28.67;48.77;101908.78;4864605;29;20097;-67
2023/09/07 06:52:54;;;;;;;16.98;8.77;;;;;;;28.94;46.90;101911.31;4846616;29;20398;-67
2023/09/07 06:55:20;;;;;;;17.77;9.02;;;;;;;29.36;46.66;101913.66;4895896;29;20514;-67
2023/09/07 06:57:46;;;;;;;13.18;8.00;;;;;;;28.07;48.33;101907.56;4890849;29;20033;-67
2023/09/07 07:00:11;;;;;;;10.52;7.70;;;;;;;26.57;52.38;101912.78;4849916;29;20051;-67
2023/09/07 07:02:38;;;;;;;8.95;7.63;;;;;;;27.32;53.73;101898.19;4863134;29;20459;-69
2023/09/07 07:05:04;;;;;;;9.65;7.50;;;;;;;28.28;48.61;101899.84;4880985;29;20485;-69
2023/09/07 07:07:30;;;;;;;10.75;7.38;;;;;;;28.91;48.26;101899.91;4867907;29;20041;-68
2023/09/07 07:09:55;;;;;;;12.65;7.57;;;;;;;29.35;47.29;101899.31;4901082;29;20043;-69
2023/09/07 07:12:21;;;;;;;12.38;7.20;;;;;;;29.48;47.40;101903.78;4886204;29;20044;-68
2023/09/07 07:14:48;;;;;;;10.40;7.10;;;;;;;28.79;48.33;101907.03;4879416;29;20044;-68
2023/09/07 07:17:14;;;;;;;11.20;6.80;;;;;;;27.84;48.36;101901.91;4847584;29;20028;-69
2023/09/07 07:19:41;;;;;;;8.80;6.63;;;;;;;26.43;51.97;101904.72;4864995;29;20052;-69
2023/09/07 07:22:06;;;;;;;7.68;6.38;;;;;;;25.64;55.83;101906.72;4891328;29;20386;-69
2023/09/07 07:24:32;;;;;;;8.70;7.18;;;;;;;25.14;60.66;101908.69;4874741;29;20040;-69
2023/09/07 07:26:58;;;;;;;8.65;6.90;;;;;;;24.70;59.28;101907.50;4891172;29;20024;-68
2023/09/07 07:29:23;;;;;;;7.93;6.95;;;;;;;23.99;60.20;101908.56;4899403;29;20084;-69
2023/09/07 07:31:50;;;;;;;8.73;7.13;;;;;;;23.65;62.24;101904.88;4892056;29;20488;-69
2023/09/07 07:34:15;;;;;;;9.20;7.65;;;;;;;23.22;63.52;101900.81;4875402;29;20117;-69
2023/09/07 07:36:41;;;;;;;9.82;7.15;;;;;;;23.09;65.93;101901.34;4886798;29;20028;-69
2023/09/07 07:39:09;;;;;;;9.68;7.90;;;;;;;22.92;65.94;101899.47;4882106;29;20031;-69
2023/09/07 07:41:35;;;;;;;9.35;7.50;;;;;;;23.11;66.54;101896.81;4849362;29;20032;-68
2023/09/07 07:44:00;;;;;;;8.30;7.50;;;;;;;23.06;65.70;101904.16;4869594;29;20046;-68
2023/09/07 07:46:26;;;;;;;9.65;7.60;;;;;;;23.53;62.73;101906.38;4876208;29;20029;-69
2023/09/07 07:48:52;;;;;;;8.90;7.15;;;;;;;24.13;61.63;101902.47;4906127;29;20083;-69
2023/09/07 07:51:17;;;;;;;8.02;6.38;;;;;;;24.95;58.21;101907.97;4885770;29;20397;-69
2023/09/07 07:53:43;;;;;;;7.72;6.63;;;;;;;24.88;58.08;101908.34;4892741;29;20394;-69
2023/09/07 07:56:20;;;;;;;8.48;6.22;;;;;;;24.81;61.26;101912.31;4862369;29;20113;-69
2023/09/07 07:58:46;;;;;;;7.97;7.07;;;;;;;24.15;61.64;101903.28;4882798;29;20043;-69
2023/09/07 08:01:16;;;;;;;9.20;6.88;;;;;;;23.96;61.73;101903.34;4869028;29;20020;-69
2023/09/07 08:03:44;;;;;;;8.82;7.10;;;;;;;23.65;63.23;101904.03;4866737;29;20127;-69
2023/09/07 08:06:11;;;;;;;7.28;6.55;;;;;;;23.49;63.49;101899.44;4880286;29;20401;-69
2023/09/07 08:08:37;;;;;;;9.95;6.82;;;;;;;23.28;62.43;101904.03;4879950;29;20028;-68
2023/09/07 08:11:05;;;;;;;8.23;6.63;;;;;;;23.15;66.39;101895.72;4880463;29;20047;-69
2023/09/07 08:13:33;;;;;;;7.85;7.05;;;;;;;23.35;64.37;101896.56;4884499;29;20476;-69
2023/09/07 08:16:02;;;;;;;8.60;6.35;;;;;;;23.48;68.43;101889.66;4870461;29;20044;-69
2023/09/07 08:18:28;;;;;;;8.23;6.25;;;;;;;23.49;64.16;101888.75;4887550;29;20435;-69
2023/09/07 08:20:55;;;;;;;9.32;5.97;;;;;;;23.50;66.23;101893.16;4866126;29;20124;-68
2023/09/07 08:23:23;;;;;;;9.43;6.43;;;;;;;23.46;62.47;101880.88;4879863;29;20063;-69
2023/09/07 08:25:51;;;;;;;9.60;6.03;;;;;;;23.46;65.53;101883.53;4889044;29;20037;-69
2023/09/07 08:28:18;;;;;;;7.53;6.10;;;;;;;23.60;69.55;101876.63;4874565;29;20509;-68
2023/09/07 08:30:43;;;;;;;8.18;6.30;;;;;;;23.63;63.64;101879.16;4869988;29;20028;-68
2023/09/07 08:33:09;;;;;;;8.65;5.93;;;;;;;23.73;64.53;101876.88;4882598;29;20096;-68
2023/09/07 08:35:35;;;;;;;9.43;6.60;;;;;;;23.79;63.77;101874.75;4902471;29;20128;-68
2023/09/07 08:38:05;;;;;;;9.18;6.78;;;;;;;23.79;63.76;101877.44;4884513;29;20064;-69
2023/09/07 08:40:34;;;;;;;9.65;6.40;;;;;;;23.76;62.65;101869.56;4902521;29;20032;-68
2023/09/07 08:43:03;;;;;;;8.88;6.88;;;;;;;23.77;63.18;101876.63;4884879;29;20043;-68
2023/09/07 08:45:33;;;;;;;7.93;6.65;;;;;;;23.78;62.73;101869.50;4888391;29;20028;-68
2023/09/07 08:47:59;;;;;;;;;;;;;;;24.10;61.69;101875.88;4871543;29;20405;-68
2023/09/07 08:50:25;;;;;;;9.32;6.85;;;;;;;23.67;61.28;101864.66;4895303;29;19916;-69
2023/09/07 08:52:54;;;;;;;7.68;6.97;;;;;;;23.66;60.93;101869.16;4895342;29;20036;-69
2023/09/07 08:55:21;;;;;;;8.55;6.25;;;;;;;23.74;61.39;101868.75;4887233;29;20211;-69
2023/09/07 08:57:46;;;;;;;8.00;6.57;;;;;;;23.92;63.05;101866.09;4883597;29;20532;-68
2023/09/07 09:00:16;;;;;;;13.52;7.63;;;;;;;23.81;61.00;101878.22;4871137;29;20131;-68
2023/09/07 09:02:42;;;;;;;9.63;6.50;;;;;;;23.84;62.36;101867.34;4880012;29;20037;-68
2023/09/07 09:05:14;;;;;;;14.45;6.88;;;;;;;23.90;61.63;101868.88;4870205;29;20478;-68
2023/09/07 09:07:39;;;;;;;8.18;6.35;;;;;;;24.00;62.26;101855.88;4896060;29;20084;-68
2023/09/07 09:10:06;;;;;;;7.82;6.07;;;;;;;23.97;60.36;101856.03;4880695;29;20044;-69
2023/09/07 09:12:32;;;;;;;8.50;6.20;;;;;;;23.98;61.17;101857.78;4874896;29;20025;-69
2023/09/07 09:15:00;;;;;;;8.32;6.82;;;;;;;24.14;61.04;101855.16;4868939;29;20043;-68
2023/09/07 09:17:25;;;;;;;7.60;6.35;;;;;;;24.21;62.10;101856.56;4879569;29;20025;-68
2023/09/07 09:19:51;;;;;;;8.25;6.32;;;;;;;24.23;61.91;101856.47;4866091;29;20052;-68
2023/09/07 09:22:17;;;;;;;8.63;6.15;;;;;;;24.25;61.52;101857.25;4867628;29;20051;-68
2023/09/07 09:24:42;;;;;;;7.75;6.18;;;;;;;24.18;59.76;101854.91;4867657;29;20036;-68
2023/09/07 09:27:08;;;;;;;9.70;6.07;;;;;;;24.45;62.54;101856.19;4891305;29;20024;-68
2023/09/07 09:29:34;;;;;;;10.85;5.60;;;;;;;24.72;64.58;101851.16;4925037;23;20374;-67
2023/09/07 09:32:04;;;;;;;7.78;6.00;;;;;;;24.51;59.19;101859.41;4921513;23;20136;-67
2023/09/07 09:34:37;;;;;;;8.45;5.70;;;;;;;24.67;61.24;101843.38;4898683;29;20033;-67
2023/09/07 09:37:03;;;;;;;7.88;5.70;;;;;;;24.72;59.82;101843.09;4896844;29;20040;-67
2023/09/07 09:39:29;;;;;;;6.18;5.10;;;;;;;24.92;61.77;101839.31;4879949;29;20048;-67
2023/09/07 09:41:55;;;;;;;7.68;5.00;;;;;;;24.96;60.05;101842.69;5003333;23;20500;-68
2023/09/07 09:44:25;;;;;;;6.72;4.82;;;;;;;24.97;58.36;101841.72;4870735;29;20043;-69
2023/09/07 09:46:54;;;;;;;6.72;5.05;;;;;;;25.01;57.80;101843.28;4893367;29;20037;-68
2023/09/07 09:49:21;;;;;;;6.55;5.43;;;;;;;25.03;58.43;101831.50;4925270;23;20089;-68
2023/09/07 09:54:16;;;;;;;6.85;4.78;;;;;;;25.17;58.22;101833.41;5013118;23;20064;-68
2023/09/07 09:56:43;;;;;;;8.32;4.93;;;;;;;25.37;60.38;101829.59;4889473;29;20028;-68
2023/09/07 09:59:08;;;;;;;7.15;4.70;;;;;;;25.37;57.83;101831.41;4854044;29;20049;-68
2023/09/07 10:01:46;;;;;;;8.23;4.70;;;;;;;25.45;58.74;101830.97;4945710;23;20045;-68
2023/09/07 10:09:19;;;;;;;6.07;4.88;;;;;;;25.50;57.56;101826.19;5000194;23;20320;-65
2023/09/07 10:11:54;;;;;;;6.80;4.70;;;;;;;25.67;58.69;101825.16;4962956;23;20504;-66
2023/09/07 10:14:20;;;;;;;7.53;4.50;;;;;;;25.71;57.06;101819.53;4957667;23;20032;-66
2023/09/07 10:16:55;;;;;;;8.13;5.00;;;;;;;25.72;56.65;101821.25;4900552;29;20044;-67
2023/09/07 10:19:23;;;;;;;8.43;4.53;;;;;;;25.87;58.68;101822.13;4951583;23;20045;-65
2023/09/07 10:21:49;;;;;;;6.20;4.32;;;;;;;25.88;56.23;101818.50;4935414;23;20147;-65
2023/09/07 10:24:38;;;;;;;5.45;4.30;;;;;;;26.04;57.12;101825.66;4871053;29;20029;-65
2023/09/07 10:27:06;;;;;;;6.73;4.37;;;;;;;25.98;56.11;101823.31;5027297;23;20055;-66
2023/09/07 10:29:42;;;;;;;8.25;4.20;;;;;;;26.16;56.48;101835.66;5137609;23;20015;-66
2023/09/07 10:32:10;;;;;;;6.35;4.05;;;;;;;26.11;54.18;101827.00;5056381;23;20358;-65
2023/09/07 10:37:13;;;;;;;5.18;4.03;;;;;;;26.16;55.95;101822.22;1272399;27;20477;-65
2023/09/07 10:39:39;;;;;;;5.35;3.58;;;;;;;26.27;54.89;101822.38;4898504;29;20123;-65
2023/09/07 10:42:05;;;;;;;5.28;3.85;;;;;;;26.37;56.06;101813.75;4866588;29;20075;-65
2023/09/07 10:44:31;;;;;;;6.35;3.47;;;;;;;26.34;52.69;101813.97;4877286;29;20064;-65
2023/09/07 10:47:00;;;;;;;6.95;4.00;;;;;;;26.50;54.50;101814.69;4896492;29;20040;-65
2023/09/07 10:49:25;;;;;;;5.87;3.83;;;;;;;26.57;53.70;101817.84;4896600;29;20044;-65
2023/09/07 10:51:51;;;;;;;9.88;4.07;;;;;;;26.61;52.92;101808.63;4884740;29;20656;-65
2023/09/07 10:54:23;;;;;;;4.28;3.58;;;;;;;26.72;55.05;101808.84;4869278;29;20035;-65
2023/09/07 10:56:50;;;;;;;5.93;4.10;;;;;;;26.70;51.79;101808.06;4900534;29;20068;-65
2023/09/07 10:59:17;;;;;;;4.65;3.83;;;;;;;26.81;53.36;101807.38;4882880;29;20066;-65
2023/09/07 11:01:46;;;;;;;4.72;3.50;;;;;;;26.95;52.93;101798.38;4897605;29;20028;-65
2023/09/07 11:04:11;;;;;;;8.37;4.10;;;;;;;26.94;53.00;101797.53;4909913;29;20499;-65
2023/09/07 11:06:41;;;;;;;5.63;4.00;;;;;;;26.89;51.86;101798.78;4875021;29;20044;-65
2023/09/07 11:09:10;;;;;;;6.32;4.10;;;;;;;26.98;52.16;101792.81;4866651;29;20572;-65
2023/09/07 11:11:36;;;;;;;8.35;4.20;;;;;;;27.09;55.21;101784.88;4897562;29;20425;-65
2023/09/07 11:14:04;;;;;;;6.78;4.05;;;;;;;27.01;52.61;101784.56;4864432;29;20468;-65
2023/09/07 11:16:30;;;;;;;5.35;3.90;;;;;;;26.96;51.43;101787.50;4876752;29;20051;-65
2023/09/07 11:18:55;;;;;;;5.45;3.70;;;;;;;26.93;51.68;101774.28;4878491;29;20071;-65